Terminal Aerodrome Forecast
Issued by NWS

Home | Current Version | Previous Version | Text Only | Print | Product List | Glossary On
Versions: 1 2 3 4 5 6 7 8 9 10 11 12 13 14 15 16
207
FTUS43 KUNR 241724
TAFGCC
TAF
KGCC 241724Z 2418/2518 34007KT P6SM VCSH BKN050
     FM242100 01006KT P6SM VCSH OVC070
     FM250000 06009KT P6SM -SHRA OVC030
     FM251000 06012KT 3/4SM -SN OVC003
     FM251700 03016G24KT 2SM -SN OVC003=

USA.gov is the U.S. government's official web portal to all federal, state and local government web resources and services.